createdAt,value
2018-11-20T00:01:19.539Z,4.93
2018-11-20T00:06:45.748Z,4.90
2018-11-20T00:12:08.003Z,5.00
2018-11-20T00:17:29.676Z,4.97
2018-11-20T00:22:42.179Z,5.13
2018-11-20T00:28:10.190Z,5.10
2018-11-20T00:33:32.457Z,5.00
2018-11-20T00:39:02.108Z,5.40
2018-11-20T00:44:25.638Z,5.03
2018-11-20T00:49:49.623Z,4.93
2018-11-20T00:55:13.213Z,5.13
2018-11-20T01:00:28.053Z,5.03
2018-11-20T01:05:49.940Z,5.50
2018-11-20T01:11:22.259Z,5.87
2018-11-20T01:16:47.855Z,5.43
2018-11-20T01:22:14.892Z,5.50
2018-11-20T01:27:37.069Z,6.00
2018-11-20T01:33:09.557Z,6.30
2018-11-20T01:38:31.816Z,6.13
2018-11-20T01:43:59.517Z,5.97
2018-11-20T01:49:14.437Z,5.80
2018-11-20T01:54:36.399Z,6.90
2018-11-20T02:00:05.929Z,6.33
2018-11-20T02:06:11.240Z,5.67
2018-11-20T02:11:29.359Z,6.13
2018-11-20T02:16:49.915Z,6.87
2018-11-20T02:22:06.334Z,6.60
2018-11-20T02:27:27.318Z,7.97
2018-11-20T02:33:01.663Z,7.67
2018-11-20T02:38:26.283Z,7.30
2018-11-20T02:43:48.579Z,7.23
2018-11-20T02:49:16.682Z,6.73
2018-11-20T02:54:37.923Z,7.93
2018-11-20T02:59:59.158Z,7.60
2018-11-20T03:05:30.627Z,7.07
2018-11-20T03:10:53.035Z,8.20
2018-11-20T03:16:12.584Z,7.60
2018-11-20T03:21:24.384Z,7.90
2018-11-20T03:26:45.051Z,7.83
2018-11-20T03:32:22.399Z,7.17
2018-11-20T03:37:43.427Z,8.00
2018-11-20T03:42:51.580Z,7.67
2018-11-20T03:48:12.483Z,8.50
2018-11-20T03:53:33.163Z,7.27
2018-11-20T03:58:50.168Z,8.17
2018-11-20T04:04:18.455Z,7.80
2018-11-20T04:09:42.839Z,7.20
2018-11-20T04:15:10.932Z,7.53
2018-11-20T04:20:33.269Z,7.97
2018-11-20T04:26:01.804Z,7.27
2018-11-20T04:32:14.803Z,7.67
2018-11-20T04:37:47.603Z,7.17
2018-11-20T04:43:09.952Z,6.83
2018-11-20T04:48:20.560Z,8.73
2018-11-20T04:53:48.921Z,7.27
2018-11-20T04:59:09.670Z,7.90
2018-11-20T05:04:23.904Z,8.13
2018-11-20T05:09:49.185Z,8.67
2018-11-20T05:15:10.329Z,8.57
2018-11-20T05:20:35.386Z,8.60
2018-11-20T05:26:13.104Z,9.10
2018-11-20T05:31:30.888Z,8.77
2018-11-20T05:36:51.814Z,7.27
2018-11-20T05:42:17.303Z,8.27
2018-11-20T05:47:39.689Z,8.60
2018-11-20T05:53:14.037Z,8.33
2018-11-20T05:58:45.374Z,8.30
2018-11-20T06:04:23.084Z,8.20
2018-11-20T06:09:44.026Z,8.27
2018-11-20T06:15:12.389Z,8.67
2018-11-20T06:20:28.690Z,7.87
2018-11-20T06:25:49.753Z,9.03
2018-11-20T06:31:14.037Z,9.07
2018-11-20T06:36:35.236Z,8.13
2018-11-20T06:42:09.701Z,9.13
2018-11-20T06:47:31.632Z,8.47
2018-11-20T06:52:53.983Z,8.63
2018-11-20T06:58:19.311Z,8.60
2018-11-20T07:03:41.670Z,8.67
2018-11-20T07:09:02.589Z,8.03
2018-11-20T07:14:38.838Z,8.73
2018-11-20T07:20:16.412Z,8.13
2018-11-20T07:25:37.397Z,7.97
2018-11-20T07:31:05.658Z,8.90
2018-11-20T07:36:37.378Z,8.60
2018-11-20T07:42:11.572Z,9.07
2018-11-20T07:47:43.688Z,8.63
2018-11-20T07:53:07.151Z,9.73
2018-11-20T07:58:35.270Z,9.10
2018-11-20T08:03:55.348Z,9.53
2018-11-20T08:09:09.512Z,10.37
2018-11-20T08:14:30.404Z,10.57
2018-11-20T08:20:00.581Z,10.63
2018-11-20T08:25:24.712Z,10.77
2018-11-20T08:30:45.562Z,11.80
2018-11-20T08:36:16.899Z,10.83
2018-11-20T08:41:27.945Z,11.57
2018-11-20T08:46:49.012Z,11.70
2018-11-20T08:52:08.328Z,11.80
2018-11-20T08:57:28.902Z,12.37
2018-11-20T09:02:57.220Z,11.90
2018-11-20T09:08:22.206Z,12.37
2018-11-20T09:13:43.517Z,12.40
2018-11-20T09:19:12.483Z,13.07
2018-11-20T09:24:48.381Z,13.00
2018-11-20T09:30:10.781Z,12.63
2018-11-20T09:35:30.331Z,13.07
2018-11-20T09:41:02.499Z,11.83
2018-11-20T09:46:30.646Z,13.03
2018-11-20T09:51:51.649Z,12.07
2018-11-20T09:57:12.832Z,11.30
2018-11-20T10:02:22.828Z,12.00
2018-11-20T10:08:00.228Z,10.50
2018-11-20T10:13:09.900Z,12.00
2018-11-20T10:18:50.622Z,11.43
2018-11-20T10:24:19.127Z,11.27
2018-11-20T10:29:58.749Z,10.97
2018-11-20T10:35:30.135Z,10.10
2018-11-20T10:41:07.452Z,10.07
2018-11-20T10:46:45.303Z,9.67
2018-11-20T10:52:25.827Z,8.73
2018-11-20T10:57:44.088Z,10.10
2018-11-20T11:03:05.125Z,9.77
2018-11-20T11:08:33.422Z,10.53
2018-11-20T11:14:08.273Z,9.87
2018-11-20T11:19:26.687Z,9.67
2018-11-20T11:24:55.193Z,10.43
2018-11-20T11:30:11.479Z,9.10
2018-11-20T11:35:33.532Z,9.73
2018-11-20T11:40:54.582Z,9.03
2018-11-20T11:46:29.391Z,8.97
2018-11-20T11:51:51.781Z,9.17
2018-11-20T11:57:14.614Z,9.67
2018-11-20T12:08:08.186Z,9.47
2018-11-20T12:13:37.066Z,8.30
2018-11-20T12:19:12.058Z,9.40
2018-11-20T12:24:29.303Z,9.07
2018-11-20T12:29:51.198Z,9.77
2018-11-20T12:35:21.134Z,8.90
2018-11-20T12:40:48.573Z,9.60
2018-11-20T12:46:24.898Z,7.97
2018-11-20T12:52:00.728Z,8.40
2018-11-20T12:57:25.653Z,8.50
2018-11-20T13:02:50.363Z,8.30
2018-11-20T13:08:20.816Z,9.00
2018-11-20T13:13:37.187Z,9.00
2018-11-20T13:18:54.371Z,9.03
2018-11-20T13:24:21.339Z,8.53
2018-11-20T13:29:49.758Z,8.60
2018-11-20T13:35:10.824Z,8.70
2018-11-20T13:41:19.619Z,10.13
2018-11-20T13:46:40.740Z,9.73
2018-11-20T13:51:55.834Z,10.03
2018-11-20T13:57:17.727Z,10.53
2018-11-20T14:02:39.434Z,10.37
2018-11-20T14:08:03.486Z,11.60
2018-11-20T14:13:33.065Z,11.40
2018-11-20T14:18:54.330Z,10.90
2018-11-20T14:24:13.972Z,10.27
2018-11-20T14:29:35.177Z,12.60
2018-11-20T14:35:15.709Z,12.37
2018-11-20T14:40:33.322Z,13.63
2018-11-20T14:46:08.382Z,13.60
2018-11-20T14:51:32.187Z,13.77
2018-11-20T14:56:57.565Z,11.90
2018-11-20T15:02:18.674Z,14.80
2018-11-20T15:07:59.429Z,14.87
2018-11-20T15:13:24.235Z,14.43
2018-11-20T15:18:45.625Z,14.43
2018-11-20T15:24:20.278Z,13.87
2018-11-20T15:29:41.744Z,15.27
2018-11-20T15:35:03.124Z,14.70
2018-11-20T15:40:33.268Z,15.10
2018-11-20T15:46:13.830Z,15.30
2018-11-20T15:51:45.064Z,14.40
2018-11-20T15:57:07.471Z,14.03
2018-11-20T16:02:28.907Z,14.30
2018-11-20T16:07:51.240Z,13.93
2018-11-20T16:13:13.027Z,13.63
2018-11-20T16:18:41.190Z,13.87
2018-11-20T16:24:06.234Z,9.83
2018-11-20T16:29:19.022Z,12.20
2018-11-20T16:34:45.437Z,13.30
2018-11-20T16:40:06.396Z,11.93
2018-11-20T16:45:27.769Z,12.90
2018-11-20T16:51:02.354Z,12.27
2018-11-20T16:56:20.636Z,13.37
2018-11-20T17:01:33.059Z,12.70
2018-11-20T17:06:42.392Z,14.10
2018-11-20T17:12:04.751Z,13.57
2018-11-20T17:17:25.691Z,12.53
2018-11-20T17:22:46.916Z,13.40
2018-11-20T17:28:18.107Z,13.80
2018-11-20T17:33:58.814Z,13.60
2018-11-20T17:39:20.110Z,15.68
2018-11-20T17:44:40.978Z,14.77
2018-11-20T17:50:02.323Z,13.37
2018-11-20T17:55:19.886Z,13.40
2018-11-20T18:00:48.402Z,14.00
2018-11-20T18:06:04.921Z,14.37
2018-11-20T18:11:30.272Z,14.30
2018-11-20T18:16:52.805Z,14.27
2018-11-20T18:22:13.720Z,14.77
2018-11-20T18:27:36.194Z,14.63
2018-11-20T18:33:04.485Z,15.33
2018-11-20T18:38:45.476Z,16.03
2018-11-20T18:44:10.564Z,15.90
2018-11-20T18:49:31.744Z,15.77
2018-11-20T18:54:54.107Z,17.20
2018-11-20T19:00:16.483Z,16.53
2018-11-20T19:05:37.278Z,17.67
2018-11-20T19:11:14.786Z,17.33
2018-11-20T19:16:37.151Z,17.73
2018-11-20T19:21:58.104Z,17.77
2018-11-20T19:27:22.513Z,16.90
2018-11-20T19:32:53.750Z,16.73
2018-11-20T19:38:15.469Z,17.00
2018-11-20T19:43:46.893Z,16.57
2018-11-20T19:49:08.160Z,18.03
2018-11-20T19:54:48.927Z,17.00
2018-11-20T20:00:13.929Z,16.67
2018-11-20T20:05:37.522Z,17.40
2018-11-20T20:11:05.578Z,17.60
2018-11-20T20:16:28.548Z,17.97
2018-11-20T20:21:49.733Z,18.23
2018-11-20T20:27:10.917Z,18.43
2018-11-20T20:32:32.947Z,18.40
2018-11-20T20:37:54.770Z,18.23
2018-11-20T20:43:16.717Z,17.47
2018-11-20T20:48:51.026Z,18.40
2018-11-20T20:54:13.571Z,17.43
2018-11-20T20:59:38.528Z,18.20
2018-11-20T21:05:08.391Z,17.27
2018-11-20T21:10:29.267Z,18.53
2018-11-20T21:16:09.529Z,18.10
2018-11-20T21:21:28.167Z,15.37
2018-11-20T21:26:49.118Z,16.87
2018-11-20T21:32:10.209Z,17.60
2018-11-20T21:37:38.278Z,17.43
2018-11-20T21:43:03.508Z,17.70
2018-11-20T21:48:18.637Z,16.97
2018-11-20T21:53:50.759Z,16.70
2018-11-20T21:59:18.514Z,19.43
2018-11-20T22:04:39.516Z,17.67
2018-11-20T22:09:56.117Z,17.97
2018-11-20T22:15:16.977Z,16.53
2018-11-20T22:20:38.826Z,17.57
2018-11-20T22:25:59.942Z,17.07
2018-11-20T22:31:21.111Z,16.80
2018-11-20T22:36:58.534Z,18.30
2018-11-20T22:42:20.302Z,17.87
2018-11-20T22:47:41.183Z,17.63
2018-11-20T22:53:02.296Z,17.80
2018-11-20T22:58:33.795Z,17.57
2018-11-20T23:04:08.165Z,16.10
2018-11-20T23:09:11.349Z,19.03
2018-11-20T23:14:14.194Z,17.70
2018-11-20T23:19:17.273Z,17.73
2018-11-20T23:24:20.091Z,17.97
2018-11-20T23:29:23.065Z,18.07
2018-11-20T23:34:25.861Z,18.60
2018-11-20T23:39:28.763Z,18.93
2018-11-20T23:44:31.636Z,19.80
2018-11-20T23:49:34.489Z,18.23
2018-11-20T23:54:37.303Z,18.07
2018-11-20T23:59:40.170Z,18.00
